Contact Us:
Email: info@sawbill.com
Phone: (218)663-7150
Fax: (218)663-7980
Mail: 4620 Sawbill Trail
Box 2129
Tofte, MN 55615


Powered by
Movable Type 3.15
 
Sawbill Weather History Archives: July 2003
Current Sawbill Weather History | « June 2003 | August 2003 »


Date

High
Temperature

Low
Temperature

Barometric
Pressure

Relative
Humidity 7AM

9 AM
Temperature

Moisture

Snow

07/31/03 77 53 29.91 89% 54 .08"  
07/30/03 78 59 29.90 90% 61 .20"  
07/29/03 83 59 29.87 88% 61 .10"  
07/28/03 85 58 30.01 83% 63 0  
07/27/03 82 56 30.11 82% 59 0  
07/26/03 88 61 30.08 79% 62 0  
07/25/03 86 59 29.87 87% 66 0  
07/24/03 81 55 29.89 86% 59 0  
07/23/03 80 52 30.08 77% 58 0  
07/22/03 74 51 30.21 58% 54 0  
07/21/03 71 55 30.12 83% 57 0  
07/20/03 85 58 29.89 85% 59 .07"  
07/19/03 86 60 29.87 90% 60 .2"  
07/18/03 83 52 30.08 83% 55 0  
07/17/03 78 50 30.23 88% 50 0  
07/16/03 74 52 30.23 77% 52 Trace  
07/15/03 78 53 30.05 88% 55 0  
07/14/03 76 60 29.85 87% 60 .55"  
07/13/03 81 57 29.86 79% 67 0  
07/12/03 83 54 30.05 86% 56 0  
07/11/03 70 54 30.00 89% 54 0  
07/10/03 59 54 29.82 88% 54 .57"  
07/09/03 64 54 29.87 88% 55 .4"  
07/08/03 69 48 30.11 76% 48 0  
07/07/03 77 53 30.01 71% 55 0  
07/06/03 82 60 29.81 90% 63 1.15"  
07/05/03 84 54 29.90 91% 60 .04"  
07/04/03 86 55 29.92 79% 60 0  
07/03/03 86 60 29.79 83% 61 Trace  
07/02/03 85 60 29.74 87% 63 .09"  
07/01/03 85 60 29.88 90% 60 .5"  
 


Home I Trip Planning I Rentals and Outfitting I Reservations I Campgrounds I Sawbill Store I Sawbill News I Contact

© 1997 - 2017, Sawbill Canoe Outfitters, Inc. I Privacy Policy